Time;durP1;ratioP1;P1;durP2;ratioP2;P2;SDS_P1;SDS_P2;PMS_P1;PMS_P2;Temp;Humidity;BMP_temperature;BMP_pressure;BME280_temperature;BME280_humidity;BME280_pressure;Samples;Min_cycle;Max_cycle;Signal;HPM_P1;HPM_P2
2021/05/21 00:00:51;;;;;;;7.78;4.95;;;;;;;10.97;88.28;100741.25;6270784;28;20064;-76
2021/05/21 00:03:52;;;;;;;7.20;5.30;;;;;;;10.90;89.21;100740.72;6271335;28;20487;-75
2021/05/21 00:06:54;;;;;;;9.52;4.88;;;;;;;10.90;89.01;100733.69;6271442;28;20056;-76
2021/05/21 00:09:55;;;;;;;7.97;4.95;;;;;;;10.83;90.62;100728.84;6271350;28;20095;-78
2021/05/21 00:12:56;;;;;;;9.40;5.22;;;;;;;10.83;90.13;100715.69;6272494;28;20504;-77
2021/05/21 00:15:57;;;;;;;10.00;5.30;;;;;;;10.79;89.27;100722.06;6272063;28;20047;-77
2021/05/21 00:18:57;;;;;;;7.47;5.10;;;;;;;10.84;89.56;100704.25;6272542;28;20048;-77
2021/05/21 00:21:59;;;;;;;8.93;4.85;;;;;;;10.79;88.31;100703.66;6269020;22;20132;-74
2021/05/21 00:25:00;;;;;;;8.00;4.32;;;;;;;10.79;88.14;100690.50;6220882;28;20053;-74
2021/05/21 00:28:01;;;;;;;6.05;4.50;;;;;;;10.88;87.82;100690.00;6221780;28;20049;-74
2021/05/21 00:31:02;;;;;;;6.32;4.22;;;;;;;11.03;85.57;100685.66;6221670;28;20069;-74
2021/05/21 00:34:03;;;;;;;6.88;3.83;;;;;;;11.07;84.95;100682.78;6221214;28;20133;-74
2021/05/21 00:37:04;;;;;;;6.45;3.55;;;;;;;11.06;84.19;100673.19;6221291;28;20042;-74
2021/05/21 00:40:07;;;;;;;9.45;3.95;;;;;;;11.10;84.30;100666.00;6221659;28;20105;-73
2021/05/21 00:43:07;;;;;;;7.35;3.03;;;;;;;11.09;84.87;100669.56;6221461;28;20390;-74
2021/05/21 00:46:08;;;;;;;5.55;3.33;;;;;;;11.18;80.32;100654.09;6220979;28;20045;-74
2021/05/21 00:49:09;;;;;;;5.95;3.00;;;;;;;11.28;79.56;100650.94;6221933;28;20109;-73
2021/05/21 00:52:12;;;;;;;5.20;2.50;;;;;;;11.28;79.11;100641.25;6221630;28;20136;-74
2021/05/21 00:55:13;;;;;;;3.80;2.55;;;;;;;11.27;80.25;100634.31;6221322;28;20050;-74
2021/05/21 00:58:14;;;;;;;4.00;2.67;;;;;;;11.30;79.30;100626.22;6221626;28;20057;-74
2021/05/21 01:01:16;;;;;;;5.00;2.58;;;;;;;11.33;78.82;100623.41;6221427;28;20052;-74
2021/05/21 01:04:16;;;;;;;4.85;2.92;;;;;;;11.39;78.36;100611.69;6221539;28;20062;-74
2021/05/21 01:07:19;;;;;;;12.63;3.00;;;;;;;11.38;78.87;100599.47;6221332;28;20627;-74
2021/05/21 01:10:20;;;;;;;6.78;2.50;;;;;;;11.42;78.12;100590.47;6221543;28;20493;-74
2021/05/21 01:13:20;;;;;;;7.28;2.80;;;;;;;11.43;78.96;100579.00;6224742;28;20058;-74
2021/05/21 01:16:21;;;;;;;4.47;2.50;;;;;;;11.45;78.04;100573.66;6225638;28;20138;-74
2021/05/21 01:19:22;;;;;;;3.30;2.20;;;;;;;11.43;78.39;100565.84;6225620;28;20484;-74
2021/05/21 01:22:24;;;;;;;2.83;2.10;;;;;;;11.40;77.83;100553.72;6225328;28;20504;-74
2021/05/21 01:25:25;;;;;;;4.95;2.47;;;;;;;11.43;78.32;100558.78;6225196;28;20548;-74
2021/05/21 01:28:26;;;;;;;3.95;2.78;;;;;;;11.39;78.50;100546.75;6225358;28;20054;-74
2021/05/21 01:31:28;;;;;;;4.20;2.67;;;;;;;11.41;78.96;100549.31;6225334;28;20136;-74
2021/05/21 01:34:29;;;;;;;5.75;2.35;;;;;;;11.37;77.77;100537.28;6225000;28;20046;-74
2021/05/21 01:37:31;;;;;;;4.70;2.03;;;;;;;11.41;77.28;100529.09;6225047;28;20405;-74
2021/05/21 01:40:33;;;;;;;7.03;2.47;;;;;;;11.49;76.52;100522.50;6224917;28;20076;-74
2021/05/21 01:43:34;;;;;;;3.70;2.15;;;;;;;11.43;76.99;100523.72;6225231;28;20049;-74
2021/05/21 01:46:36;;;;;;;2.55;1.92;;;;;;;11.38;78.58;100513.47;6224450;28;20527;-74
2021/05/21 01:49:37;;;;;;;3.10;1.75;;;;;;;11.38;77.47;100507.38;6224902;28;20050;-74
2021/05/21 01:52:39;;;;;;;3.33;2.00;;;;;;;11.37;77.20;100501.28;6224735;28;20069;-74
2021/05/21 01:55:40;;;;;;;4.25;2.10;;;;;;;11.31;78.48;100499.03;6224745;28;20100;-74
2021/05/21 01:58:40;;;;;;;2.40;1.60;;;;;;;11.23;78.23;100489.91;6224565;28;20394;-74
2021/05/21 02:01:41;;;;;;;3.70;1.60;;;;;;;11.13;78.54;100481.72;6224749;28;20103;-74
2021/05/21 02:04:42;;;;;;;3.47;1.63;;;;;;;11.04;80.55;100484.91;6224389;28;20104;-74
2021/05/21 02:07:45;;;;;;;2.45;1.80;;;;;;;10.97;80.42;100487.03;6224455;28;20053;-74
2021/05/21 02:10:46;;;;;;;2.85;1.63;;;;;;;10.89;80.44;100479.59;6224349;28;20057;-74
2021/05/21 02:13:47;;;;;;;8.60;1.85;;;;;;;10.85;79.10;100477.22;6224137;28;20049;-74
2021/05/21 02:16:49;;;;;;;5.20;1.80;;;;;;;10.82;80.55;100466.91;6224226;28;20046;-74
2021/05/21 02:19:50;;;;;;;2.30;1.55;;;;;;;10.78;81.83;100468.88;6224118;28;20143;-74
2021/05/21 02:22:51;;;;;;;5.00;2.05;;;;;;;10.77;80.96;100458.47;6223295;28;20057;-74
2021/05/21 02:25:52;;;;;;;1.50;1.30;;;;;;;10.78;81.62;100450.47;6223733;28;20049;-74
2021/05/21 02:28:53;;;;;;;2.28;1.65;;;;;;;10.72;80.76;100450.84;6224249;28;20096;-74
2021/05/21 02:31:54;;;;;;;2.15;1.30;;;;;;;10.81;80.35;100446.81;6223856;28;20053;-74
2021/05/21 02:34:55;;;;;;;5.20;1.77;;;;;;;10.84;81.33;100439.59;6223490;28;20046;-74
2021/05/21 02:37:56;;;;;;;3.28;1.33;;;;;;;10.92;78.63;100434.72;6223806;28;20575;-74
2021/05/21 02:40:57;;;;;;;4.60;1.55;;;;;;;10.96;78.85;100435.38;6223512;28;20050;-74
2021/05/21 02:43:58;;;;;;;3.95;1.33;;;;;;;10.92;80.01;100420.72;6223900;28;20466;-74
2021/05/21 02:46:59;;;;;;;2.58;1.30;;;;;;;10.89;79.51;100411.22;6223034;28;20100;-74
2021/05/21 02:50:00;;;;;;;1.65;1.27;;;;;;;10.91;78.92;100409.38;6223269;28;20054;-73
2021/05/21 02:53:02;;;;;;;4.05;1.33;;;;;;;10.98;77.75;100401.09;6223310;28;20057;-74
2021/05/21 02:56:03;;;;;;;1.42;1.20;;;;;;;10.93;78.44;100399.59;6223118;28;20394;-74
2021/05/21 02:59:04;;;;;;;2.17;1.10;;;;;;;10.92;79.37;100395.28;6223199;28;20049;-74
2021/05/21 03:02:05;;;;;;;4.47;1.35;;;;;;;10.92;79.31;100391.81;6223351;28;20095;-74
2021/05/21 03:05:07;;;;;;;2.85;1.20;;;;;;;10.87;79.63;100384.22;6222873;28;20042;-74
2021/05/21 03:08:09;;;;;;;3.85;1.38;;;;;;;10.82;80.74;100377.53;6223202;28;20057;-74
2021/05/21 03:11:10;;;;;;;1.60;1.10;;;;;;;10.74;80.89;100372.72;6223123;28;20050;-73
2021/05/21 03:14:11;;;;;;;1.58;1.10;;;;;;;10.83;79.73;100369.56;6223084;28;20157;-74
2021/05/21 03:17:12;;;;;;;2.28;0.90;;;;;;;10.80;79.10;100366.25;6222916;28;20513;-73
2021/05/21 03:20:14;;;;;;;1.58;1.17;;;;;;;10.86;78.23;100364.13;6222767;28;20129;-74
2021/05/21 03:23:16;;;;;;;3.10;1.10;;;;;;;10.82;79.19;100352.09;6222710;28;20054;-74
2021/05/21 03:26:17;;;;;;;3.20;1.10;;;;;;;10.77;80.12;100348.06;6222496;28;20061;-74
2021/05/21 03:29:17;;;;;;;10.30;1.73;;;;;;;10.83;79.53;100345.91;6222857;28;20049;-74
2021/05/21 03:32:18;;;;;;;2.83;1.30;;;;;;;10.73;80.19;100341.31;6222549;28;20046;-74
2021/05/21 03:35:19;;;;;;;1.77;0.90;;;;;;;10.74;79.99;100342.97;6222434;28;20493;-74
2021/05/21 03:38:21;;;;;;;2.05;1.30;;;;;;;10.74;80.63;100341.19;6222575;28;20527;-73
2021/05/21 03:41:22;;;;;;;4.05;1.48;;;;;;;10.85;78.08;100332.66;6222598;28;20061;-74
2021/05/21 03:44:23;;;;;;;1.50;1.40;;;;;;;10.82;80.01;100335.47;6222303;28;20442;-74
2021/05/21 03:47:24;;;;;;;6.75;1.52;;;;;;;10.84;79.27;100330.97;6222335;28;20171;-74
2021/05/21 03:50:25;;;;;;;2.75;1.05;;;;;;;10.91;79.36;100332.28;6222407;28;20072;-74
2021/05/21 03:53:27;;;;;;;2.03;1.17;;;;;;;10.91;78.76;100327.88;6222312;28;20054;-74
2021/05/21 03:56:28;;;;;;;1.98;1.20;;;;;;;10.93;77.97;100322.50;6222086;28;20046;-74
2021/05/21 03:59:29;;;;;;;8.15;1.40;;;;;;;10.94;78.90;100313.69;6222115;28;20061;-74
2021/05/21 04:02:30;;;;;;;3.20;0.98;;;;;;;10.96;80.07;100303.09;6222190;28;20493;-74
2021/05/21 04:05:32;;;;;;;2.28;1.00;;;;;;;10.99;79.02;100298.50;6221873;28;20489;-74
2021/05/21 04:08:35;;;;;;;2.17;1.27;;;;;;;10.95;79.44;100296.16;6222198;28;20128;-74
2021/05/21 04:11:37;;;;;;;3.42;1.23;;;;;;;10.97;79.77;100295.09;6221991;28;20060;-74
2021/05/21 04:14:38;;;;;;;3.28;1.20;;;;;;;10.99;79.94;100290.59;6222076;28;20049;-73
2021/05/21 04:17:39;;;;;;;1.85;0.88;;;;;;;10.96;78.43;100288.16;6221795;28;20095;-74
2021/05/21 04:20:40;;;;;;;3.10;1.23;;;;;;;10.96;79.67;100282.91;6221996;28;20449;-74
2021/05/21 04:23:41;;;;;;;2.80;1.58;;;;;;;11.02;78.26;100287.75;6221820;28;20057;-74
2021/05/21 04:26:42;;;;;;;4.78;1.25;;;;;;;11.03;78.99;100281.56;6221973;28;20100;-74
2021/05/21 04:29:43;;;;;;;1.55;1.00;;;;;;;11.05;80.16;100277.06;6221866;28;20053;-74
2021/05/21 04:32:44;;;;;;;1.73;1.05;;;;;;;11.02;79.20;100273.78;6221717;28;20053;-74
2021/05/21 04:35:45;;;;;;;5.30;1.23;;;;;;;11.09;78.66;100273.31;6221666;28;20133;-74
2021/05/21 04:38:47;;;;;;;1.95;1.10;;;;;;;11.17;78.00;100272.78;6221777;28;20054;-74
2021/05/21 04:41:48;;;;;;;3.92;1.10;;;;;;;11.21;79.21;100271.66;6221703;28;20081;-74
2021/05/21 04:44:49;;;;;;;3.38;1.00;;;;;;;11.22;77.57;100264.63;6221310;28;20078;-74
2021/05/21 04:47:49;;;;;;;4.00;1.10;;;;;;;11.29;78.02;100255.41;6224824;28;20132;-74
2021/05/21 04:50:50;;;;;;;4.20;1.45;;;;;;;11.34;79.19;100248.06;6226239;28;20080;-74
2021/05/21 04:53:52;;;;;;;4.72;1.30;;;;;;;11.45;77.63;100250.00;6226249;28;20420;-73
2021/05/21 04:56:53;;;;;;;3.38;1.33;;;;;;;11.47;77.18;100250.75;6225834;28;20053;-73
2021/05/21 04:59:54;;;;;;;2.40;1.27;;;;;;;11.49;78.45;100238.31;6226309;28;20050;-74
2021/05/21 05:02:55;;;;;;;1.52;1.10;;;;;;;11.60;78.25;100243.75;6225778;28;20509;-74
2021/05/21 05:05:57;;;;;;;1.75;0.88;;;;;;;11.72;76.92;100250.84;6225897;28;20052;-74
2021/05/21 05:08:58;;;;;;;2.58;1.15;;;;;;;11.84;77.66;100251.81;6226035;28;20042;-74
2021/05/21 05:12:00;;;;;;;1.35;0.80;;;;;;;11.84;76.45;100250.03;6225543;28;20057;-74
2021/05/21 05:15:00;;;;;;;3.85;1.05;;;;;;;11.90;77.04;100248.81;6225496;28;20405;-74
2021/05/21 05:18:01;;;;;;;8.65;1.42;;;;;;;12.05;75.36;100245.13;6225521;28;20087;-74
2021/05/21 05:21:05;;;;;;;1.55;1.10;;;;;;;12.21;77.44;100236.19;6225488;28;20077;-73
2021/05/21 05:24:11;;;;;;;2.35;1.38;;;;;;;12.15;76.61;100234.81;6225353;28;20057;-73
2021/05/21 05:27:12;;;;;;;3.55;1.15;;;;;;;12.15;77.23;100226.91;6225214;28;20050;-73
2021/05/21 05:30:14;;;;;;;3.15;1.23;;;;;;;12.31;76.00;100219.66;6216190;28;20506;-73
2021/05/21 05:33:15;;;;;;;3.45;1.17;;;;;;;12.22;76.54;100215.03;6225331;28;20061;-74
2021/05/21 05:36:16;;;;;;;2.58;0.95;;;;;;;12.18;75.45;100217.00;6220919;28;20049;-74
2021/05/21 05:39:18;;;;;;;3.72;1.15;;;;;;;12.21;74.93;100218.56;6211023;28;20058;-73
2021/05/21 05:42:19;;;;;;;4.47;1.13;;;;;;;12.27;75.17;100219.97;6200851;28;20046;-74
2021/05/21 05:45:20;;;;;;;1.52;0.90;;;;;;;12.28;75.04;100219.00;6200115;28;20047;-74
2021/05/21 05:48:21;;;;;;;5.35;0.98;;;;;;;12.29;75.57;100211.00;6200531;28;20109;-74
2021/05/21 05:51:22;;;;;;;6.32;1.08;;;;;;;12.34;75.87;100203.59;6200767;28;20046;-74
2021/05/21 05:54:26;;;;;;;2.33;1.00;;;;;;;12.46;75.94;100199.28;6200447;28;20457;-74
2021/05/21 05:57:27;;;;;;;4.57;0.90;;;;;;;12.52;74.73;100198.00;6199610;28;20093;-73
2021/05/21 06:00:28;;;;;;;3.00;0.95;;;;;;;12.55;75.36;100192.53;6199830;28;20126;-74
2021/05/21 06:03:29;;;;;;;2.08;1.00;;;;;;;12.54;75.21;100194.34;6200197;28;20082;-74
2021/05/21 06:06:30;;;;;;;3.55;0.80;;;;;;;12.69;75.00;100187.13;6200090;28;20112;-74
2021/05/21 06:09:32;;;;;;;2.88;1.27;;;;;;;12.83;74.27;100181.72;6199998;28;20055;-74
2021/05/21 06:12:32;;;;;;;8.90;1.20;;;;;;;12.85;74.35;100181.59;6200234;28;20054;-74
2021/05/21 06:15:34;;;;;;;4.70;1.00;;;;;;;12.91;74.39;100174.09;6201364;28;20080;-74
2021/05/21 06:18:36;;;;;;;3.05;1.15;;;;;;;13.00;74.50;100174.38;6209631;28;20572;-73
2021/05/21 06:21:37;;;;;;;2.80;0.98;;;;;;;13.10;74.06;100172.75;6211492;28;20064;-74
2021/05/21 06:24:40;;;;;;;6.50;1.30;;;;;;;13.07;74.44;100170.31;6209310;28;20038;-74
2021/05/21 06:27:41;;;;;;;3.70;1.00;;;;;;;13.06;73.93;100168.66;6229945;23;20050;-77
2021/05/21 06:30:42;;;;;;;7.07;1.58;;;;;;;13.23;73.89;100162.19;6222728;28;20103;-76
2021/05/21 06:33:43;;;;;;;3.40;1.08;;;;;;;13.35;73.08;100162.13;6223674;28;20578;-76
2021/05/21 06:36:44;;;;;;;2.60;1.02;;;;;;;13.33;74.05;100161.38;6223518;28;20603;-77
2021/05/21 06:39:45;;;;;;;1.75;0.80;;;;;;;13.26;73.88;100162.78;6237156;28;20079;-76
2021/05/21 06:42:46;;;;;;;2.40;1.88;;;;;;;13.36;72.22;100158.53;6248137;28;20072;-77
2021/05/21 06:45:49;;;;;;;6.55;1.08;;;;;;;13.27;73.36;100151.28;6226038;28;20054;-76
2021/05/21 06:48:49;;;;;;;1.70;0.90;;;;;;;13.25;73.93;100152.34;6223527;28;20050;-77
2021/05/21 06:51:50;;;;;;;11.02;1.10;;;;;;;13.19;73.82;100156.25;6211539;28;20050;-77
2021/05/21 06:54:52;;;;;;;4.93;0.80;;;;;;;13.31;75.86;100150.09;6199854;28;20057;-76
2021/05/21 06:57:53;;;;;;;2.05;0.75;;;;;;;13.21;72.85;100149.03;6199215;28;20053;-76
2021/05/21 07:00:57;;;;;;;2.60;0.88;;;;;;;13.21;72.62;100146.41;6199163;28;20058;-76
2021/05/21 07:03:58;;;;;;;4.30;1.15;;;;;;;13.22;73.70;100150.78;6212234;28;20054;-77
2021/05/21 07:06:59;;;;;;;8.77;1.45;;;;;;;13.42;70.71;100147.50;6204142;28;20053;-76
2021/05/21 07:10:01;;;;;;;4.45;1.42;;;;;;;13.41;69.73;100155.53;6198497;28;20061;-76
2021/05/21 07:13:09;;;;;;;6.60;1.27;;;;;;;13.47;69.76;100144.50;6199006;28;20054;-76
2021/05/21 07:16:10;;;;;;;10.70;2.25;;;;;;;13.57;69.83;100134.09;6199010;28;20050;-75
2021/05/21 07:19:14;;;;;;;5.43;0.98;;;;;;;13.61;69.41;100130.25;6198905;28;20517;-75
2021/05/21 07:22:15;;;;;;;5.07;1.13;;;;;;;13.81;68.46;100137.53;6198626;28;20056;-77
2021/05/21 07:25:17;;;;;;;3.08;0.90;;;;;;;13.85;69.65;100133.69;6198696;28;20471;-75
2021/05/21 07:28:18;;;;;;;2.00;1.00;;;;;;;13.76;68.71;100136.16;6198325;28;20046;-76
2021/05/21 07:31:19;;;;;;;9.43;1.00;;;;;;;13.70;69.47;100132.22;6198679;28;20069;-76
2021/05/21 07:34:20;;;;;;;5.35;1.38;;;;;;;13.65;69.81;100131.72;6198657;28;20050;-76
2021/05/21 07:37:21;;;;;;;6.50;0.98;;;;;;;13.77;67.62;100135.25;6198524;28;20062;-76
2021/05/21 07:40:24;;;;;;;9.40;1.23;;;;;;;13.70;69.55;100135.69;6211694;28;20058;-76
2021/05/21 07:43:25;;;;;;;8.50;1.20;;;;;;;13.87;68.54;100137.03;6235337;28;20046;-75
2021/05/21 07:46:26;;;;;;;9.60;1.75;;;;;;;13.42;69.48;100136.94;6238080;28;20047;-76
2021/05/21 07:49:27;;;;;;;5.57;1.17;;;;;;;13.28;71.15;100141.56;6247238;28;20196;-76
2021/05/21 07:52:28;;;;;;;8.40;1.48;;;;;;;13.01;71.94;100141.78;6236263;28;20120;-76
2021/05/21 07:55:30;;;;;;;5.57;1.30;;;;;;;12.84;74.55;100133.28;6240376;28;20049;-76
2021/05/21 07:58:31;;;;;;;8.57;1.80;;;;;;;12.72;74.08;100133.31;6219489;28;20050;-76
2021/05/21 08:01:32;;;;;;;8.48;1.52;;;;;;;12.78;74.64;100128.47;6213977;28;20060;-75
2021/05/21 08:04:33;;;;;;;6.22;1.67;;;;;;;12.57;75.71;100130.84;6208714;28;20473;-75
2021/05/21 08:07:34;;;;;;;4.35;1.58;;;;;;;12.47;76.55;100128.97;6212089;28;20053;-75
2021/05/21 08:10:35;;;;;;;10.52;1.67;;;;;;;12.47;77.90;100121.91;6233006;28;20429;-76
2021/05/21 08:13:38;;;;;;;6.18;1.92;;;;;;;12.40;80.11;100134.69;6223668;28;20049;-75
2021/05/21 08:16:39;;;;;;;16.17;2.17;;;;;;;12.38;79.95;100136.56;6209845;28;20092;-76
2021/05/21 08:19:40;;;;;;;8.05;1.55;;;;;;;11.80;84.25;100135.31;6221908;28;20058;-75
2021/05/21 08:22:41;;;;;;;15.82;2.53;;;;;;;11.39;90.24;100143.38;6225295;28;20054;-78
2021/05/21 08:25:43;;;;;;;16.42;2.33;;;;;;;11.23;93.70;100155.84;6226936;28;20046;-77
2021/05/21 08:28:44;;;;;;;5.60;2.00;;;;;;;11.12;96.44;100161.78;6227531;28;20053;-77
2021/05/21 08:31:45;;;;;;;11.02;2.35;;;;;;;11.11;100.00;100168.84;6226921;28;20049;-78
2021/05/21 08:34:46;;;;;;;10.18;2.25;;;;;;;10.99;100.00;100163.53;6226688;28;20046;-75
2021/05/21 08:37:47;;;;;;;10.73;2.17;;;;;;;10.85;100.00;100149.47;6222894;28;20101;-75
2021/05/21 08:40:49;;;;;;;8.13;2.92;;;;;;;11.00;100.00;100139.78;6213798;28;20112;-76
2021/05/21 08:43:52;;;;;;;9.13;2.40;;;;;;;11.06;100.00;100135.91;6206903;28;20050;-75
2021/05/21 08:46:53;;;;;;;5.93;2.70;;;;;;;11.01;100.00;100151.16;6204610;28;20485;-76
2021/05/21 08:49:54;;;;;;;5.15;2.40;;;;;;;11.08;100.00;100141.91;6225508;28;20104;-73
2021/05/21 08:52:55;;;;;;;5.70;2.70;;;;;;;11.15;100.00;100136.16;6218630;28;20042;-74
2021/05/21 08:55:58;;;;;;;8.65;3.72;;;;;;;11.23;100.00;100133.03;6216621;28;20139;-76
2021/05/21 08:58:59;;;;;;;10.70;3.65;;;;;;;11.21;100.00;100124.38;6221483;28;20046;-75
2021/05/21 09:02:01;;;;;;;9.90;3.15;;;;;;;11.21;100.00;100120.91;6226365;28;20500;-75
2021/05/21 09:05:03;;;;;;;7.28;2.88;;;;;;;11.24;100.00;100116.28;6226394;28;20050;-75
2021/05/21 09:08:05;;;;;;;6.32;3.05;;;;;;;11.29;100.00;100111.56;6216851;28;20050;-74
2021/05/21 09:11:21;;;;;;;9.35;3.33;;;;;;;11.38;100.00;100118.84;6220088;28;20433;-74
2021/05/21 09:14:22;;;;;;;10.98;3.40;;;;;;;11.52;100.00;100106.56;6226705;28;20053;-75
2021/05/21 09:17:24;;;;;;;8.90;3.33;;;;;;;11.66;100.00;100109.09;6214051;28;20050;-75
2021/05/21 09:20:28;;;;;;;8.75;3.65;;;;;;;11.79;100.00;100086.25;6211890;28;20052;-74
2021/05/21 09:23:29;;;;;;;6.10;3.92;;;;;;;11.97;100.00;100089.44;6205283;28;20042;-74
2021/05/21 09:26:41;;;;;;;11.77;3.95;;;;;;;12.13;100.00;100065.50;6204933;28;20078;-75
2021/05/21 09:29:45;;;;;;;9.15;3.85;;;;;;;12.22;100.00;100064.00;6201241;28;20051;-76
2021/05/21 09:32:47;;;;;;;12.60;3.80;;;;;;;12.33;99.64;100061.44;6211563;28;20115;-76
2021/05/21 09:35:55;;;;;;;14.07;3.38;;;;;;;12.52;100.00;100072.34;6225783;28;20053;-76
2021/05/21 09:38:57;;;;;;;11.05;2.95;;;;;;;12.86;99.58;100067.25;6225704;28;20077;-76
2021/05/21 09:41:59;;;;;;;7.07;2.38;;;;;;;13.20;91.03;100057.66;6219051;28;20054;-76
2021/05/21 09:45:14;;;;;;;9.10;2.55;;;;;;;13.50;89.88;100045.78;6213007;28;20041;-76
2021/05/21 09:48:16;;;;;;;7.82;2.20;;;;;;;13.51;89.34;100036.91;6203311;28;20050;-75
2021/05/21 09:51:18;;;;;;;7.82;2.13;;;;;;;13.67;85.38;100045.28;6222487;28;20058;-75
2021/05/21 09:54:20;;;;;;;6.65;1.70;;;;;;;13.60;80.67;100059.94;6224274;28;20050;-76
2021/05/21 09:57:30;;;;;;;10.32;1.80;;;;;;;13.36;80.91;100060.88;6223530;28;20050;-76
2021/05/21 10:00:31;;;;;;;3.83;1.60;;;;;;;13.37;82.42;100074.91;6223821;28;20073;-75
2021/05/21 10:03:32;;;;;;;10.20;1.77;;;;;;;13.32;83.31;100080.53;6223485;28;20050;-75
2021/05/21 10:06:33;;;;;;;8.02;2.20;;;;;;;13.34;83.32;100090.97;6222134;28;20149;-78
2021/05/21 10:09:34;;;;;;;4.63;1.38;;;;;;;12.96;75.14;100107.81;6234635;28;20046;-79
2021/05/21 10:12:38;;;;;;;19.88;2.35;;;;;;;12.54;83.90;100130.22;6237927;28;20052;-82
2021/05/21 10:15:39;;;;;;;11.85;2.05;;;;;;;11.91;89.79;100129.38;6246945;28;20550;-80
2021/05/21 10:18:44;;;;;;;10.25;2.58;;;;;;;11.43;96.25;100145.69;6224873;28;20073;-81
2021/05/21 10:21:45;;;;;;;12.60;2.38;;;;;;;11.20;95.65;100138.47;6224702;28;20053;-80
2021/05/21 10:24:47;;;;;;;16.58;2.10;;;;;;;11.16;97.57;100153.59;6225374;28;20173;-78
2021/05/21 10:27:52;;;;;;;15.52;2.20;;;;;;;11.48;94.17;100149.81;6234778;28;20053;-83
2021/05/21 10:30:57;;;;;;;10.55;1.92;;;;;;;11.32;95.43;100168.41;6226083;28;20046;-80
2021/05/21 10:34:12;;;;;;;12.88;2.10;;;;;;;11.32;92.09;100160.50;6227710;28;20041;-80
2021/05/21 10:37:28;;;;;;;15.13;3.15;;;;;;;10.96;95.82;100155.88;6227515;28;20046;-82
2021/05/21 10:40:29;;;;;;;12.40;3.08;;;;;;;10.86;98.20;100159.09;6226649;28;20053;-76
2021/05/21 10:43:30;;;;;;;18.38;2.55;;;;;;;10.82;96.08;100201.44;6224459;28;20057;-74
2021/05/21 10:46:32;;;;;;;16.77;2.65;;;;;;;10.72;96.66;100169.63;6223871;28;20046;-82
2021/05/21 10:49:33;;;;;;;9.07;2.22;;;;;;;10.64;98.74;100164.84;6226085;28;20073;-81
2021/05/21 10:52:55;;;;;;;11.43;2.28;;;;;;;10.73;99.39;100166.06;6229026;28;20050;-80
2021/05/21 10:55:56;;;;;;;18.67;2.55;;;;;;;11.01;95.74;100156.41;6225605;28;20041;-79
2021/05/21 10:59:02;;;;;;;9.88;1.83;;;;;;;11.28;94.71;100159.03;6226111;28;20061;-81
2021/05/21 11:02:03;;;;;;;9.88;1.85;;;;;;;11.48;92.00;100160.34;6228350;28;20049;-80
2021/05/21 11:05:20;;;;;;;9.82;1.98;;;;;;;11.54;91.77;100146.78;6225677;28;20050;-79
2021/05/21 11:08:27;;;;;;;10.30;2.17;;;;;;;11.71;86.13;100137.72;6225805;28;20065;-77
2021/05/21 11:11:53;;;;;;;13.85;2.95;;;;;;;11.70;86.58;100129.00;6224628;28;20675;-79
2021/05/21 11:14:54;;;;;;;13.30;1.88;;;;;;;12.16;85.02;100124.06;6224992;28;20058;-77
2021/05/21 11:18:26;;;;;;;11.05;2.28;;;;;;;12.76;78.08;100121.59;6224364;28;20045;-79
2021/05/21 11:21:27;;;;;;;9.30;1.95;;;;;;;12.79;79.01;100119.59;6222966;28;20046;-75
2021/05/21 11:24:37;;;;;;;14.18;1.83;;;;;;;12.77;71.64;100107.50;6222843;28;20284;-75
2021/05/21 11:27:38;;;;;;;10.55;1.60;;;;;;;12.53;75.32;100115.34;6222441;28;20476;-74
2021/05/21 11:30:40;;;;;;;12.98;2.30;;;;;;;12.66;73.67;100109.09;6222836;28;20050;-75
2021/05/21 11:33:44;;;;;;;13.27;2.88;;;;;;;13.10;70.08;100101.53;6223207;28;20126;-77
2021/05/21 11:36:45;;;;;;;15.05;2.50;;;;;;;13.62;66.95;100097.63;6223172;28;20046;-77
2021/05/21 11:39:46;;;;;;;11.00;1.70;;;;;;;13.99;66.22;100086.84;6222620;28;20099;-76
2021/05/21 11:42:47;;;;;;;12.23;2.13;;;;;;;14.45;61.89;100079.63;6222992;28;20057;-76
2021/05/21 11:45:49;;;;;;;14.38;2.85;;;;;;;14.74;61.34;100080.91;6222489;28;20049;-78
2021/05/21 11:48:51;;;;;;;9.93;2.10;;;;;;;15.05;60.43;100069.50;6222511;28;20050;-76
2021/05/21 11:51:57;;;;;;;10.77;1.85;;;;;;;15.09;64.02;100064.78;6222417;28;20057;-75
2021/05/21 11:54:58;;;;;;;11.25;1.50;;;;;;;15.14;63.51;100070.53;6210534;28;20137;-76
2021/05/21 11:57:59;;;;;;;14.15;2.60;;;;;;;14.92;62.81;100069.66;6221765;28;20061;-76
2021/05/21 12:01:02;;;;;;;9.88;2.28;;;;;;;14.77;62.36;100065.63;6222309;28;20053;-74
2021/05/21 12:04:05;;;;;;;11.25;1.95;;;;;;;15.53;59.10;100065.50;6246092;28;20045;-75
2021/05/21 12:07:06;;;;;;;10.95;1.92;;;;;;;15.65;63.90;100054.72;6226329;28;20057;-75
2021/05/21 12:10:07;;;;;;;13.23;2.75;;;;;;;16.16;58.99;100047.69;6222764;28;20586;-75
2021/05/21 12:13:09;;;;;;;10.30;1.77;;;;;;;16.32;58.44;100039.22;6229454;28;20056;-74
2021/05/21 12:16:17;;;;;;;12.15;2.17;;;;;;;16.08;59.32;100050.16;6223080;28;20049;-75
2021/05/21 12:19:19;;;;;;;11.82;2.38;;;;;;;15.59;60.02;100049.09;6223240;28;20493;-75
2021/05/21 12:22:22;;;;;;;12.07;2.20;;;;;;;15.20;62.14;100047.03;6224270;28;20148;-75
2021/05/21 12:25:23;;;;;;;18.67;2.58;;;;;;;15.03;63.44;100067.94;6222447;28;20045;-74
2021/05/21 12:28:24;;;;;;;12.75;2.25;;;;;;;14.43;60.94;100080.69;6210390;28;20049;-74
2021/05/21 12:31:28;;;;;;;12.98;2.08;;;;;;;13.94;65.10;100085.44;6208812;28;20051;-76
2021/05/21 12:34:29;;;;;;;13.40;1.65;;;;;;;13.33;65.08;100087.47;6209621;28;20049;-77
2021/05/21 12:37:32;;;;;;;6.63;2.13;;;;;;;12.83;72.50;100078.88;6209000;28;20042;-76
2021/05/21 12:40:33;;;;;;;13.30;1.75;;;;;;;12.37;78.11;100084.00;6207444;28;20042;-77
2021/05/21 12:43:34;;;;;;;8.32;2.10;;;;;;;12.78;77.52;100074.88;6208784;28;20054;-76
2021/05/21 12:46:48;;;;;;;7.63;1.70;;;;;;;13.40;75.71;100069.41;6204741;28;20046;-77
2021/05/21 12:49:50;;;;;;;12.20;1.75;;;;;;;13.79;70.10;100075.22;6197448;28;20042;-78
2021/05/21 12:52:55;;;;;;;9.27;2.13;;;;;;;14.05;67.93;100067.91;6197397;28;20046;-76
2021/05/21 12:55:56;;;;;;;6.20;1.52;;;;;;;14.81;62.17;100064.41;6197363;28;20046;-77
2021/05/21 12:58:57;;;;;;;10.93;1.63;;;;;;;15.09;64.51;100057.69;6213086;28;20193;-76
2021/05/21 13:01:59;;;;;;;9.85;2.05;;;;;;;15.97;66.57;100051.13;6221527;28;20077;-75
2021/05/21 13:05:02;;;;;;;10.65;2.00;;;;;;;16.55;59.36;100053.94;6221463;28;20098;-76
2021/05/21 13:08:05;;;;;;;9.60;1.83;;;;;;;16.15;58.44;100056.63;6223194;28;20057;-76
2021/05/21 13:11:06;;;;;;;11.52;2.03;;;;;;;15.66;61.80;100053.75;6226366;28;20181;-77
2021/05/21 13:14:10;;;;;;;16.75;2.72;;;;;;;15.39;60.62;100054.25;6226038;28;20061;-76
2021/05/21 13:17:12;;;;;;;11.40;2.80;;;;;;;16.06;61.83;100046.81;6225451;28;20046;-72
2021/05/21 13:20:16;;;;;;;6.95;1.83;;;;;;;16.82;56.59;100036.53;6225806;28;20054;-75
2021/05/21 13:23:20;;;;;;;11.30;2.78;;;;;;;17.05;53.30;100031.78;6225386;28;20532;-76
2021/05/21 13:26:21;;;;;;;16.70;2.65;;;;;;;16.51;57.97;100033.97;6225659;28;20052;-77
2021/05/21 13:29:23;;;;;;;17.98;2.10;;;;;;;16.27;58.88;100030.84;6225168;28;20053;-75
2021/05/21 13:32:26;;;;;;;9.38;2.67;;;;;;;16.05;58.72;100030.09;6214975;28;20061;-76
2021/05/21 13:35:27;;;;;;;14.57;2.35;;;;;;;15.67;59.46;100015.72;6201178;28;20093;-76
2021/05/21 13:38:29;;;;;;;11.10;2.38;;;;;;;15.32;59.41;100025.81;6200580;28;20061;-75
2021/05/21 13:41:29;;;;;;;19.38;2.80;;;;;;;15.03;69.85;100065.28;6201115;28;20061;-74
2021/05/21 13:44:31;;;;;;;10.70;2.13;;;;;;;14.32;73.59;100075.44;6200672;28;20046;-76
2021/05/21 13:47:33;;;;;;;15.57;2.20;;;;;;;13.57;76.78;100076.00;6200636;28;20399;-76
2021/05/21 13:50:34;;;;;;;9.82;2.63;;;;;;;13.12;80.49;100092.53;6200872;28;20050;-78
2021/05/21 13:53:36;;;;;;;15.40;2.25;;;;;;;13.07;83.79;100097.31;6201781;28;20078;-79
2021/05/21 13:56:37;;;;;;;16.60;2.40;;;;;;;13.08;82.73;100079.69;6201018;28;20054;-79
2021/05/21 13:59:37;;;;;;;16.13;1.95;;;;;;;13.35;74.57;100063.59;6221996;28;20578;-78
2021/05/21 14:02:39;;;;;;;15.07;2.38;;;;;;;13.71;72.75;100065.22;6225132;28;20053;-76